Terminal Aerodrome Forecast
Issued by NWS

Home | Current Version | Previous Version | Text Only | Print | Product List | Glossary On
Versions: 1 2 3 4 5 6 7 8 9 10 11 12 13 14 15
418
FTUS44 KCRP 131130
TAFALI
TAF
KALI 131130Z 1312/1412 VRB03KT 1/2SM FG BKN002
      TEMPO 1312/1314 1/4SM FG VV001
     FM131530 14007KT P6SM SCT025
     FM131900 13012KT P6SM SCT050
     FM140100 13008KT P6SM SCT250
     FM140700 15007KT 5SM BR BKN020=

USA.gov is the U.S. government's official web portal to all federal, state and local government web resources and services.